Time;durP1;ratioP1;P1;durP2;ratioP2;P2;SDS_P1;SDS_P2;PMS_P1;PMS_P2;Temp;Humidity;BMP_temperature;BMP_pressure;BME280_temperature;BME280_humidity;BME280_pressure;Samples;Min_cycle;Max_cycle;Signal;HPM_P1;HPM_P2
2022/08/26 00:02:00;;;;;;;6.30;4.43;;;18.30;99.90;;;;;;5073366;28;20029;-74
2022/08/26 00:04:26;;;;;;;6.00;4.45;;;18.20;99.90;;;;;;5076892;28;20025;-74
2022/08/26 00:06:53;;;;;;;9.32;4.50;;;18.10;99.90;;;;;;5075127;28;20077;-74
2022/08/26 00:09:20;;;;;;;5.88;4.35;;;18.10;99.90;;;;;;5076549;28;20035;-74
2022/08/26 00:11:46;;;;;;;7.07;4.80;;;18.10;99.90;;;;;;5076422;28;20396;-74
2022/08/26 00:14:13;;;;;;;6.82;4.70;;;18.00;99.90;;;;;;5076647;28;20033;-74
2022/08/26 00:16:39;;;;;;;8.63;4.60;;;18.00;99.90;;;;;;5075090;28;20025;-74
2022/08/26 00:19:04;;;;;;;4.60;3.92;;;17.90;99.90;;;;;;5092474;28;20048;-74
2022/08/26 00:21:30;;;;;;;6.60;4.30;;;17.90;99.90;;;;;;5076625;28;20074;-74
2022/08/26 00:23:56;;;;;;;5.03;3.92;;;17.80;99.90;;;;;;5076791;28;20032;-74
2022/08/26 00:26:21;;;;;;;7.50;4.30;;;17.80;99.90;;;;;;5076493;28;20032;-74
2022/08/26 00:28:48;;;;;;;4.80;3.72;;;17.80;99.90;;;;;;5076455;28;20074;-74
2022/08/26 00:31:14;;;;;;;5.55;4.20;;;17.70;99.90;;;;;;5076561;28;20384;-74
2022/08/26 00:33:40;;;;;;;7.03;4.70;;;17.70;99.90;;;;;;5076010;28;20388;-74
2022/08/26 00:36:07;;;;;;;5.70;4.53;;;17.80;99.90;;;;;;5076002;28;20029;-74
2022/08/26 00:38:34;;;;;;;6.53;4.60;;;17.70;99.90;;;;;;5076247;28;20064;-74
2022/08/26 00:41:00;;;;;;;6.57;4.40;;;17.70;99.90;;;;;;5075870;28;20021;-74
2022/08/26 00:43:28;;;;;;;6.43;4.28;;;17.60;99.90;;;;;;5076460;28;20032;-74
2022/08/26 00:45:57;;;;;;;7.00;4.65;;;17.60;99.90;;;;;;5058251;28;20485;-73
2022/08/26 00:48:26;;;;;;;7.00;4.20;;;17.50;99.90;;;;;;5075846;28;20056;-73
2022/08/26 00:51:07;;;;;;;5.60;4.35;;;17.50;99.90;;;;;;5076292;28;20021;-74
2022/08/26 00:53:37;;;;;;;5.95;4.53;;;17.50;99.90;;;;;;5075930;28;20481;-74
2022/08/26 00:56:20;;;;;;;5.45;4.00;;;17.40;99.90;;;;;;5076274;28;20105;-75
2022/08/26 00:58:46;;;;;;;6.80;4.65;;;17.30;99.90;;;;;;5076016;28;20060;-76
2022/08/26 01:01:13;;;;;;;5.60;4.20;;;17.20;99.90;;;;;;5075495;28;20485;-75
2022/08/26 01:03:40;;;;;;;5.05;4.50;;;17.20;99.90;;;;;;5081099;28;19908;-75
2022/08/26 01:06:08;;;;;;;5.33;4.03;;;17.20;99.90;;;;;;5074527;28;20101;-75
2022/08/26 01:08:34;;;;;;;5.68;4.55;;;17.20;99.90;;;;;;5075562;28;20032;-75
2022/08/26 01:11:00;;;;;;;6.33;4.33;;;17.20;99.90;;;;;;5078642;28;20458;-75
2022/08/26 01:13:27;;;;;;;5.95;4.15;;;17.20;99.90;;;;;;5094707;28;19965;-76
2022/08/26 01:15:57;;;;;;;4.83;3.93;;;17.20;99.90;;;;;;5094953;28;20027;-76
2022/08/26 01:18:24;;;;;;;9.10;4.50;;;17.20;99.90;;;;;;5094702;28;19904;-75
2022/08/26 01:21:02;;;;;;;6.95;4.65;;;17.20;99.90;;;;;;5095170;28;20394;-75
2022/08/26 01:23:32;;;;;;;6.90;4.40;;;17.20;99.90;;;;;;5094845;28;19918;-75
2022/08/26 01:26:05;;;;;;;6.40;4.50;;;17.10;99.90;;;;;;5078749;28;20381;-76
2022/08/26 01:28:33;;;;;;;7.65;4.70;;;17.00;99.90;;;;;;5075281;28;20021;-76
2022/08/26 01:31:01;;;;;;;5.75;4.30;;;16.90;99.90;;;;;;5075173;28;20031;-75
2022/08/26 01:33:54;;;;;;;5.55;4.20;;;16.80;99.90;;;;;;5075137;28;20048;-76
2022/08/26 01:36:21;;;;;;;7.00;4.40;;;16.70;99.90;;;;;;5091434;28;20034;-75
2022/08/26 01:38:46;;;;;;;10.75;4.57;;;16.70;99.90;;;;;;5094530;28;20020;-75
2022/08/26 01:41:13;;;;;;;6.97;4.75;;;16.70;99.90;;;;;;5094315;28;20582;-75
2022/08/26 01:43:42;;;;;;;6.45;4.18;;;16.70;99.90;;;;;;5094370;28;20028;-75
2022/08/26 01:46:10;;;;;;;6.10;4.25;;;16.70;99.90;;;;;;5094538;28;20028;-75
2022/08/26 01:48:37;;;;;;;6.57;4.20;;;16.60;99.90;;;;;;5094935;28;20028;-76
2022/08/26 01:51:06;;;;;;;5.60;3.95;;;16.70;99.90;;;;;;5094800;28;20020;-75
2022/08/26 01:53:32;;;;;;;5.80;4.60;;;16.60;99.90;;;;;;5094793;28;20077;-76
2022/08/26 01:56:01;;;;;;;6.63;4.65;;;16.60;99.90;;;;;;5095052;28;20024;-76
2022/08/26 01:58:35;;;;;;;7.05;4.63;;;16.50;99.90;;;;;;5094712;28;20024;-76
2022/08/26 02:01:01;;;;;;;6.80;5.45;;;16.50;99.90;;;;;;5094612;28;20024;-75
2022/08/26 02:03:28;;;;;;;8.05;4.60;;;16.40;99.90;;;;;;5094627;28;20107;-76
2022/08/26 02:05:57;;;;;;;7.18;4.22;;;16.40;99.90;;;;;;5093320;28;20078;-76
2022/08/26 02:08:31;;;;;;;6.20;4.28;;;16.30;99.90;;;;;;5094306;28;20093;-76
2022/08/26 02:10:57;;;;;;;6.43;4.45;;;16.30;99.90;;;;;;5094811;28;20046;-76
2022/08/26 02:13:27;;;;;;;5.57;4.50;;;16.30;99.90;;;;;;5093101;28;20043;-76
2022/08/26 02:15:54;;;;;;;5.43;4.18;;;16.30;99.90;;;;;;5094686;28;20016;-76
2022/08/26 02:18:21;;;;;;;4.75;4.07;;;16.20;99.90;;;;;;5094318;28;20032;-76
2022/08/26 02:20:47;;;;;;;6.90;4.32;;;16.30;99.90;;;;;;5094293;28;20104;-76
2022/08/26 02:23:12;;;;;;;7.38;4.22;;;16.30;99.90;;;;;;5093784;28;20059;-75
2022/08/26 02:26:01;;;;;;;6.05;4.63;;;16.30;99.90;;;;;;5093539;28;20035;-76
2022/08/26 02:28:29;;;;;;;5.45;3.90;;;16.20;99.90;;;;;;5094464;28;20472;-76
2022/08/26 02:30:55;;;;;;;5.88;4.20;;;16.20;99.90;;;;;;5094374;28;20556;-76
2022/08/26 02:33:21;;;;;;;6.03;4.53;;;16.20;99.90;;;;;;5093919;28;20111;-76
2022/08/26 02:35:46;;;;;;;7.28;4.15;;;16.10;99.90;;;;;;5094320;28;20066;-76
2022/08/26 02:38:12;;;;;;;6.80;4.13;;;16.10;99.90;;;;;;5092738;28;20511;-76
2022/08/26 02:40:40;;;;;;;5.65;3.83;;;16.10;99.90;;;;;;5093054;28;20064;-76
2022/08/26 02:43:07;;;;;;;6.18;4.20;;;16.10;99.90;;;;;;5093887;28;20047;-75
2022/08/26 02:45:32;;;;;;;6.25;4.07;;;16.10;99.90;;;;;;5093889;28;20097;-76
2022/08/26 02:47:59;;;;;;;5.53;4.00;;;16.00;99.90;;;;;;5093889;28;20484;-75
2022/08/26 02:50:25;;;;;;;5.53;4.57;;;16.10;99.90;;;;;;5094371;28;20024;-76
2022/08/26 02:52:52;;;;;;;5.35;4.28;;;16.00;99.90;;;;;;5093676;28;20145;-74
2022/08/26 02:55:17;;;;;;;7.97;4.45;;;15.90;99.90;;;;;;5092549;28;20053;-76
2022/08/26 02:57:43;;;;;;;4.78;4.20;;;15.90;99.90;;;;;;5093701;28;20103;-76
2022/08/26 03:00:13;;;;;;;8.40;4.03;;;15.90;99.90;;;;;;5093687;28;20039;-76
2022/08/26 03:02:39;;;;;;;6.38;4.30;;;15.80;99.90;;;;;;5093526;28;20025;-74
2022/08/26 03:05:06;;;;;;;5.07;3.88;;;15.80;99.90;;;;;;5093922;28;20089;-75
2022/08/26 03:07:31;;;;;;;5.45;4.00;;;15.80;99.90;;;;;;5093652;28;20036;-76
2022/08/26 03:09:57;;;;;;;5.55;4.25;;;15.70;99.90;;;;;;5092644;28;20107;-76
2022/08/26 03:12:23;;;;;;;6.32;4.05;;;15.70;99.90;;;;;;5093458;28;20035;-75
2022/08/26 03:14:49;;;;;;;6.05;3.88;;;15.60;99.90;;;;;;5093732;28;20101;-76
2022/08/26 03:17:15;;;;;;;6.60;4.22;;;15.60;99.90;;;;;;5092219;28;20477;-76
2022/08/26 03:19:41;;;;;;;5.13;4.18;;;15.60;99.90;;;;;;5093449;28;20415;-76
2022/08/26 03:22:06;;;;;;;5.78;3.88;;;15.50;99.90;;;;;;5093360;28;20053;-75
2022/08/26 03:24:33;;;;;;;4.70;3.45;;;15.50;99.90;;;;;;5092129;28;20384;-76
2022/08/26 03:27:00;;;;;;;8.07;3.65;;;15.60;99.90;;;;;;5092497;28;20056;-76
2022/08/26 03:32:10;;;;;;;9.55;6.65;;;15.50;99.90;;;;;;5093708;28;20043;-75
2022/08/26 03:34:36;;;;;;;13.40;7.40;;;15.50;99.90;;;;;;5093606;28;20024;-75
2022/08/26 03:37:02;;;;;;;11.20;6.57;;;15.50;99.90;;;;;;5094545;28;20024;-75
2022/08/26 03:39:28;;;;;;;9.38;6.30;;;15.40;99.90;;;;;;5096154;28;20028;-75
2022/08/26 03:41:54;;;;;;;8.95;5.75;;;15.40;99.90;;;;;;5097469;28;20404;-75
2022/08/26 03:44:20;;;;;;;7.78;5.50;;;15.30;99.90;;;;;;5079242;28;20032;-75
2022/08/26 03:46:46;;;;;;;7.38;5.25;;;15.30;99.90;;;;;;5097573;28;20032;-75
2022/08/26 03:49:12;;;;;;;8.88;5.35;;;15.30;99.90;;;;;;5097250;28;20108;-75
2022/08/26 03:51:39;;;;;;;8.18;5.30;;;15.30;99.90;;;;;;5097104;28;20403;-74
2022/08/26 03:54:06;;;;;;;6.18;4.80;;;15.20;99.90;;;;;;5097053;28;20024;-75
2022/08/26 03:56:32;;;;;;;5.80;4.43;;;15.30;99.90;;;;;;5097063;28;20051;-75
2022/08/26 03:58:59;;;;;;;6.90;4.20;;;15.20;99.90;;;;;;5097356;28;20016;-75
2022/08/26 04:01:26;;;;;;;5.90;3.95;;;15.20;99.90;;;;;;5096907;28;20028;-74
2022/08/26 04:03:58;;;;;;;6.68;4.15;;;15.20;99.90;;;;;;5097206;28;20038;-75
2022/08/26 04:06:35;;;;;;;6.47;3.95;;;15.20;99.90;;;;;;5097477;28;20024;-75
2022/08/26 04:09:06;;;;;;;5.72;4.15;;;15.20;99.90;;;;;;5096818;28;20039;-75
2022/08/26 04:11:34;;;;;;;5.55;3.92;;;15.20;99.90;;;;;;5096966;28;20070;-74
2022/08/26 04:14:03;;;;;;;5.57;4.00;;;15.10;99.90;;;;;;5096650;28;20016;-75
2022/08/26 04:16:30;;;;;;;6.13;4.40;;;15.20;99.90;;;;;;5097226;28;20042;-75
2022/08/26 04:18:57;;;;;;;6.63;4.35;;;15.10;99.90;;;;;;5096630;28;20016;-75
2022/08/26 04:21:24;;;;;;;7.18;4.85;;;15.10;99.90;;;;;;5097091;28;20016;-74
2022/08/26 04:23:50;;;;;;;5.93;4.95;;;15.10;99.90;;;;;;5094662;28;20020;-73
2022/08/26 04:26:18;;;;;;;5.25;4.40;;;15.10;99.90;;;;;;5095137;28;20388;-74
2022/08/26 04:28:45;;;;;;;6.03;4.45;;;15.10;99.90;;;;;;5096498;28;20534;-75
2022/08/26 04:31:16;;;;;;;6.35;4.40;;;15.10;99.90;;;;;;5096619;28;20028;-75
2022/08/26 04:33:43;;;;;;;6.57;4.32;;;15.10;99.90;;;;;;5096633;28;20016;-75
2022/08/26 04:36:09;;;;;;;6.20;4.13;;;15.00;99.90;;;;;;5096318;28;20032;-75
2022/08/26 04:38:34;;;;;;;4.72;3.83;;;15.00;99.90;;;;;;5096332;28;20035;-75
2022/08/26 04:41:02;;;;;;;6.47;4.10;;;14.90;99.90;;;;;;5096163;28;20035;-74
2022/08/26 04:43:29;;;;;;;6.75;4.15;;;14.80;99.90;;;;;;5096182;28;20070;-75
2022/08/26 04:45:59;;;;;;;4.43;3.88;;;14.80;99.90;;;;;;5096149;28;20107;-75
2022/08/26 04:48:28;;;;;;;5.40;4.13;;;14.80;99.90;;;;;;5095998;28;20039;-75
2022/08/26 04:50:53;;;;;;;5.65;3.90;;;14.70;99.90;;;;;;5094726;28;20503;-75
2022/08/26 04:53:19;;;;;;;5.63;3.95;;;14.60;99.90;;;;;;5095832;28;20036;-74
2022/08/26 04:55:45;;;;;;;5.28;4.18;;;14.60;99.90;;;;;;5095961;28;20480;-75
2022/08/26 04:58:14;;;;;;;7.90;4.18;;;14.50;99.90;;;;;;5096200;28;20539;-75
2022/08/26 05:00:42;;;;;;;5.20;4.18;;;14.50;99.90;;;;;;5095831;28;20078;-75
2022/08/26 05:03:07;;;;;;;5.75;4.30;;;14.60;99.90;;;;;;5094497;28;20119;-75
2022/08/26 05:05:36;;;;;;;6.00;4.72;;;14.60;99.90;;;;;;5095720;28;20124;-74
2022/08/26 05:08:01;;;;;;;5.57;4.80;;;14.60;99.90;;;;;;5094299;28;20036;-75
2022/08/26 05:10:27;;;;;;;5.80;4.78;;;14.70;99.90;;;;;;5095986;28;20031;-75
2022/08/26 05:12:53;;;;;;;5.40;3.90;;;14.70;99.90;;;;;;5095507;28;20038;-74
2022/08/26 05:15:19;;;;;;;5.50;4.28;;;14.70;99.90;;;;;;5095572;28;20427;-75
2022/08/26 05:17:44;;;;;;;8.32;4.32;;;14.80;99.90;;;;;;5095779;28;20469;-75
2022/08/26 05:20:10;;;;;;;5.43;4.35;;;14.80;99.90;;;;;;5095758;28;20017;-75
2022/08/26 05:22:36;;;;;;;6.60;4.30;;;14.80;99.90;;;;;;5095950;28;20028;-74
2022/08/26 05:25:02;;;;;;;5.75;4.45;;;14.80;99.90;;;;;;5095664;28;20042;-75
2022/08/26 05:27:27;;;;;;;7.93;3.90;;;14.80;99.90;;;;;;5095340;28;20024;-75
2022/08/26 05:29:56;;;;;;;6.30;4.72;;;14.80;99.90;;;;;;5095280;28;20459;-75
2022/08/26 05:32:22;;;;;;;6.22;4.63;;;14.80;99.90;;;;;;5095189;28;20031;-74
2022/08/26 05:34:51;;;;;;;6.80;4.72;;;14.80;99.90;;;;;;5095396;28;20032;-75
2022/08/26 05:37:17;;;;;;;5.72;4.90;;;14.80;99.90;;;;;;5093886;28;20024;-75
2022/08/26 05:39:43;;;;;;;5.80;4.22;;;14.80;99.90;;;;;;5095067;28;20024;-75
2022/08/26 05:42:08;;;;;;;6.57;4.85;;;14.80;99.90;;;;;;5094981;28;20419;-74
2022/08/26 05:44:34;;;;;;;6.55;4.53;;;14.80;99.90;;;;;;5095264;28;20425;-74
2022/08/26 05:47:00;;;;;;;8.10;5.22;;;14.90;99.90;;;;;;5094018;28;20484;-74
2022/08/26 05:49:25;;;;;;;7.47;4.97;;;15.00;99.90;;;;;;5093016;28;20439;-72
2022/08/26 05:51:51;;;;;;;7.93;5.35;;;15.00;99.90;;;;;;5082682;28;20426;-73
2022/08/26 05:54:17;;;;;;;6.03;4.72;;;15.10;99.90;;;;;;5115144;28;20038;-74
2022/08/26 05:56:43;;;;;;;6.13;4.88;;;15.10;99.90;;;;;;5097303;28;20111;-73
2022/08/26 05:59:13;;;;;;;8.10;4.57;;;15.20;99.90;;;;;;5093101;28;20028;-74
2022/08/26 06:01:38;;;;;;;5.35;4.50;;;15.20;99.90;;;;;;5082277;28;20028;-73
2022/08/26 06:04:04;;;;;;;6.28;4.88;;;15.30;99.90;;;;;;5078796;28;20051;-73
2022/08/26 06:06:33;;;;;;;5.50;4.63;;;15.40;99.90;;;;;;5090005;28;20039;-73
2022/08/26 06:09:01;;;;;;;6.30;5.20;;;15.40;99.90;;;;;;5075434;28;20041;-74
2022/08/26 06:11:29;;;;;;;6.38;4.30;;;15.50;99.90;;;;;;5071981;28;20071;-74
2022/08/26 06:13:57;;;;;;;5.90;4.55;;;15.60;99.90;;;;;;5089813;28;20024;-74
2022/08/26 06:16:24;;;;;;;9.27;6.45;;;15.60;99.90;;;;;;5090943;28;20016;-74
2022/08/26 06:18:51;;;;;;;7.10;5.28;;;15.60;99.90;;;;;;5092642;28;20515;-74
2022/08/26 06:21:28;;;;;;;8.02;5.75;;;15.70;99.90;;;;;;5093498;28;20093;-74
2022/08/26 06:26:48;;;;;;;8.65;5.90;;;15.70;99.90;;;;;;5094468;28;20031;-75
2022/08/26 06:29:14;;;;;;;8.95;5.40;;;15.80;99.90;;;;;;5094525;28;20103;-75
2022/08/26 06:31:40;;;;;;;7.65;5.55;;;15.80;99.90;;;;;;5094378;28;20051;-75
2022/08/26 06:34:06;;;;;;;7.45;5.68;;;15.80;99.90;;;;;;5094306;28;20024;-75
2022/08/26 06:36:33;;;;;;;7.38;5.35;;;15.90;99.90;;;;;;5094032;28;20024;-75
2022/08/26 06:39:03;;;;;;;7.93;6.38;;;16.00;99.90;;;;;;5093964;28;20028;-75
2022/08/26 06:41:30;;;;;;;13.80;9.50;;;16.00;99.90;;;;;;5094193;28;20032;-74
2022/08/26 06:43:56;;;;;;;17.20;12.63;;;16.10;99.90;;;;;;5093885;28;20055;-75
2022/08/26 06:46:23;;;;;;;19.27;13.02;;;16.20;99.90;;;;;;5093924;28;20027;-75
2022/08/26 06:48:49;;;;;;;14.18;10.32;;;16.20;99.90;;;;;;5094174;28;20395;-75
2022/08/26 06:51:20;;;;;;;16.00;9.88;;;16.30;99.90;;;;;;5093740;28;20024;-75
2022/08/26 06:53:49;;;;;;;10.90;8.70;;;16.40;99.90;;;;;;5094032;28;20039;-75
2022/08/26 06:56:18;;;;;;;9.77;7.60;;;16.50;99.90;;;;;;5093046;28;20480;-74
2022/08/26 06:58:44;;;;;;;11.80;8.45;;;16.70;99.90;;;;;;5094023;28;20028;-74
2022/08/26 07:01:28;;;;;;;12.35;8.60;;;16.80;99.90;;;;;;5093924;28;20026;-74
2022/08/26 07:03:56;;;;;;;11.77;7.95;;;16.90;99.90;;;;;;5093607;28;20020;-75
2022/08/26 07:06:23;;;;;;;10.43;8.50;;;17.00;99.90;;;;;;5092384;28;20119;-75
2022/08/26 07:08:51;;;;;;;14.02;9.75;;;17.10;99.90;;;;;;5093550;28;20044;-75
2022/08/26 07:11:18;;;;;;;12.38;9.00;;;17.20;99.90;;;;;;5093748;28;20024;-74
2022/08/26 07:13:47;;;;;;;8.90;7.43;;;17.30;99.90;;;;;;5093463;28;20443;-74
2022/08/26 07:16:15;;;;;;;11.80;8.75;;;17.50;99.90;;;;;;5093528;28;20028;-75
2022/08/26 07:18:42;;;;;;;11.77;8.57;;;17.60;99.90;;;;;;5093717;28;20024;-74
2022/08/26 07:21:10;;;;;;;11.27;8.82;;;17.70;99.90;;;;;;5089877;28;20388;-75
2022/08/26 07:23:37;;;;;;;10.18;7.88;;;17.80;99.90;;;;;;5084877;28;20025;-75
2022/08/26 07:26:05;;;;;;;14.10;8.90;;;17.90;99.90;;;;;;5095362;28;20036;-74
2022/08/26 07:28:31;;;;;;;10.80;9.27;;;18.00;99.90;;;;;;5100261;28;20024;-75
2022/08/26 07:30:56;;;;;;;13.10;9.23;;;18.10;99.90;;;;;;5106314;28;20510;-75
2022/08/26 07:33:22;;;;;;;13.02;9.00;;;18.20;99.90;;;;;;5101771;28;20038;-75
2022/08/26 07:35:48;;;;;;;11.88;9.23;;;18.30;99.90;;;;;;5102398;28;20048;-75
2022/08/26 07:38:14;;;;;;;15.10;10.70;;;18.40;99.90;;;;;;5113698;28;20607;-74
2022/08/26 07:40:39;;;;;;;11.50;9.52;;;18.50;99.90;;;;;;5110190;28;20024;-75
2022/08/26 07:43:08;;;;;;;14.50;12.05;;;18.60;99.90;;;;;;5093204;28;20020;-75
2022/08/26 07:45:34;;;;;;;19.35;15.63;;;18.80;99.90;;;;;;5093346;28;20394;-74
2022/08/26 07:47:59;;;;;;;16.40;13.93;;;18.90;99.90;;;;;;5106057;28;20016;-74
2022/08/26 07:50:26;;;;;;;14.05;11.82;;;19.00;99.90;;;;;;5104624;28;20472;-75
2022/08/26 07:52:52;;;;;;;11.60;9.50;;;19.10;99.90;;;;;;5110292;28;20357;-75
2022/08/26 07:55:18;;;;;;;11.65;10.15;;;19.20;99.90;;;;;;5104401;28;20054;-75
2022/08/26 07:57:45;;;;;;;19.52;12.52;;;19.40;99.90;;;;;;5101984;28;20028;-75
2022/08/26 08:00:14;;;;;;;13.50;12.07;;;19.50;99.90;;;;;;5114049;28;20044;-75
2022/08/26 08:02:43;;;;;;;14.43;12.50;;;19.60;99.90;;;;;;5099016;28;20020;-75
2022/08/26 08:05:10;;;;;;;11.85;9.48;;;19.70;99.90;;;;;;5093305;28;20028;-75
2022/08/26 08:07:36;;;;;;;9.77;8.07;;;19.90;99.90;;;;;;5097886;28;20031;-74
2022/08/26 08:10:03;;;;;;;8.57;7.28;;;20.00;99.90;;;;;;5113312;28;20078;-75
2022/08/26 08:12:29;;;;;;;9.23;7.95;;;20.20;99.90;;;;;;5113253;28;20108;-75
2022/08/26 08:14:55;;;;;;;7.60;6.65;;;20.30;99.90;;;;;;5113234;28;20110;-74
2022/08/26 08:17:20;;;;;;;8.93;7.95;;;20.40;99.90;;;;;;5113684;28;20105;-75
2022/08/26 08:19:46;;;;;;;13.52;9.27;;;20.50;99.90;;;;;;5112435;28;20028;-75
2022/08/26 08:22:12;;;;;;;11.43;8.15;;;20.60;99.90;;;;;;5113274;28;20047;-75
2022/08/26 08:24:38;;;;;;;10.60;9.00;;;20.80;99.90;;;;;;5116317;28;20383;-75
2022/08/26 08:27:03;;;;;;;10.20;7.30;;;20.90;99.90;;;;;;5117228;28;20024;-75
2022/08/26 08:29:29;;;;;;;10.57;8.95;;;21.10;99.90;;;;;;5116846;28;20028;-75
2022/08/26 08:31:56;;;;;;;10.20;9.00;;;21.20;99.90;;;;;;5106306;28;20028;-74
2022/08/26 08:34:24;;;;;;;9.60;8.02;;;21.40;99.90;;;;;;5079633;28;20052;-75
2022/08/26 08:36:50;;;;;;;8.52;6.97;;;21.50;99.90;;;;;;5077147;28;20027;-75
2022/08/26 08:39:16;;;;;;;9.55;6.28;;;21.60;99.90;;;;;;5087091;28;20107;-75
2022/08/26 08:41:51;;;;;;;7.28;5.85;;;21.70;99.90;;;;;;5089940;28;20459;-75
2022/08/26 08:44:21;;;;;;;6.05;5.22;;;21.90;99.90;;;;;;5092981;28;20384;-75
2022/08/26 08:46:54;;;;;;;9.60;5.75;;;22.00;99.90;;;;;;5087793;28;20056;-75
2022/08/26 08:49:21;;;;;;;7.75;5.20;;;22.10;99.90;;;;;;5075857;28;20055;-75
2022/08/26 08:52:08;;;;;;;6.82;5.78;;;22.20;99.50;;;;;;5075700;28;20029;-74
2022/08/26 08:54:33;;;;;;;8.43;6.22;;;22.40;99.90;;;;;;5086206;28;20032;-75
2022/08/26 08:57:14;;;;;;;6.50;5.85;;;22.50;99.90;;;;;;5084140;28;20035;-75
2022/08/26 08:59:54;;;;;;;21.67;5.78;;;22.70;99.60;;;;;;5110611;28;20019;-77
2022/08/26 09:02:34;;;;;;;12.45;5.63;;;22.80;99.30;;;;;;5090320;28;20025;-74
2022/08/26 09:05:16;;;;;;;6.85;5.45;;;23.10;98.70;;;;;;5076293;28;20029;-76
2022/08/26 09:07:54;;;;;;;9.15;5.50;;;23.40;97.20;;;;;;5087782;28;20058;-77
2022/08/26 09:10:48;;;;;;;6.30;4.47;;;23.60;96.30;;;;;;5095483;28;20046;-76
2022/08/26 09:13:16;;;;;;;5.68;4.10;;;23.80;95.80;;;;;;5090492;28;20020;-77
2022/08/26 09:16:06;;;;;;;5.57;4.72;;;23.90;94.20;;;;;;5086067;28;20016;-76
2022/08/26 09:18:52;;;;;;;8.98;4.75;;;24.00;94.30;;;;;;5076005;28;20013;-77
2022/08/26 09:21:24;;;;;;;7.22;4.90;;;23.90;94.60;;;;;;5082951;28;20158;-77
2022/08/26 09:23:50;;;;;;;6.53;4.80;;;23.90;93.80;;;;;;5095983;28;20472;-77
2022/08/26 09:26:26;;;;;;;6.40;5.18;;;23.80;94.60;;;;;;5095763;28;20051;-77
2022/08/26 09:28:58;;;;;;;7.55;6.28;;;23.80;94.80;;;;;;5096014;28;20020;-77
2022/08/26 09:31:30;;;;;;;8.90;6.72;;;23.90;95.40;;;;;;5093650;28;20036;-76
2022/08/26 09:34:23;;;;;;;7.55;6.20;;;24.00;95.90;;;;;;5074991;28;20028;-77
2022/08/26 09:36:55;;;;;;;8.07;5.50;;;24.10;95.40;;;;;;5088335;28;20028;-76
2022/08/26 09:39:27;;;;;;;8.27;5.68;;;24.10;94.20;;;;;;5091068;28;20096;-76
2022/08/26 09:42:27;;;;;;;8.30;7.40;;;24.20;94.10;;;;;;5090747;28;20035;-76
2022/08/26 09:45:05;;;;;;;12.20;7.57;;;24.30;93.00;;;;;;5083175;28;20041;-77
2022/08/26 09:47:40;;;;;;;5.90;5.30;;;24.40;92.90;;;;;;5075475;28;20059;-77
2022/08/26 09:50:27;;;;;;;7.88;5.47;;;24.50;93.30;;;;;;5074963;28;20388;-77
2022/08/26 09:53:10;;;;;;;6.32;4.00;;;24.60;92.00;;;;;;5078388;28;20048;-77
2022/08/26 09:55:40;;;;;;;7.10;3.63;;;24.80;91.00;;;;;;5084727;28;20029;-77
2022/08/26 09:58:11;;;;;;;5.50;3.83;;;25.00;90.90;;;;;;5090991;28;20024;-77
2022/08/26 10:00:55;;;;;;;5.50;3.65;;;25.20;90.30;;;;;;5078207;28;20050;-77
2022/08/26 10:03:27;;;;;;;5.38;4.15;;;25.40;89.20;;;;;;5091314;28;20416;-76
2022/08/26 10:05:59;;;;;;;8.95;5.85;;;25.60;90.80;;;;;;5086809;28;20110;-76
2022/08/26 10:08:34;;;;;;;6.15;4.72;;;25.80;92.90;;;;;;5094170;28;20031;-76
2022/08/26 10:11:18;;;;;;;5.70;4.93;;;26.00;91.00;;;;;;5095122;28;20023;-77
2022/08/26 10:13:49;;;;;;;8.80;4.78;;;26.00;89.70;;;;;;5094943;28;20032;-77
2022/08/26 10:16:22;;;;;;;6.05;4.60;;;26.10;86.80;;;;;;5094596;28;20439;-77
2022/08/26 10:18:57;;;;;;;4.85;4.20;;;26.20;89.30;;;;;;5095078;28;20370;-77
2022/08/26 10:22:04;;;;;;;7.15;4.85;;;26.30;88.00;;;;;;5095006;28;20020;-77
2022/08/26 10:24:47;;;;;;;5.03;4.00;;;26.50;89.40;;;;;;5095657;28;20028;-78
2022/08/26 10:27:26;;;;;;;5.20;3.72;;;26.60;84.80;;;;;;5092615;28;20024;-76
2022/08/26 10:30:03;;;;;;;6.45;4.05;;;26.70;87.80;;;;;;5075431;28;20039;-77
2022/08/26 10:32:37;;;;;;;5.00;3.85;;;26.90;83.30;;;;;;5087222;28;20073;-76
2022/08/26 10:35:05;;;;;;;3.90;3.17;;;27.00;80.90;;;;;;5081288;28;20025;-77
2022/08/26 10:37:38;;;;;;;4.43;3.47;;;27.00;82.50;;;;;;5074058;28;20035;-77
2022/08/26 10:40:22;;;;;;;4.38;3.42;;;27.10;81.70;;;;;;5074083;28;20077;-76
2022/08/26 10:43:26;;;;;;;4.70;3.42;;;27.20;82.80;;;;;;5073981;28;20021;-76
2022/08/26 10:45:56;;;;;;;4.57;3.40;;;27.30;80.60;;;;;;5072426;28;20036;-77
2022/08/26 10:48:32;;;;;;;8.77;3.33;;;27.50;81.20;;;;;;5074771;28;20461;-77
2022/08/26 10:51:00;;;;;;;4.57;3.45;;;27.60;80.70;;;;;;5073993;28;20040;-77
2022/08/26 10:53:57;;;;;;;6.95;3.50;;;27.70;78.80;;;;;;5074168;28;20032;-77
2022/08/26 10:56:43;;;;;;;4.72;3.50;;;27.80;78.20;;;;;;5073267;28;20070;-76
2022/08/26 10:59:16;;;;;;;4.72;3.30;;;27.90;78.50;;;;;;5072393;28;20025;-76
2022/08/26 11:01:51;;;;;;;4.50;3.25;;;28.00;78.90;;;;;;5075512;28;20039;-76
2022/08/26 11:04:43;;;;;;;4.50;3.50;;;28.10;75.70;;;;;;5080344;28;20021;-75
2022/08/26 11:08:07;;;;;;;6.35;3.47;;;28.20;76.30;;;;;;5074158;28;20037;-77
2022/08/26 11:10:41;;;;;;;5.90;3.03;;;28.30;75.40;;;;;;5010953;28;20037;-77
2022/08/26 11:13:07;;;;;;;3.60;2.95;;;28.30;71.50;;;;;;5012590;28;20045;-77
2022/08/26 11:15:38;;;;;;;5.15;3.17;;;28.30;73.70;;;;;;5053460;28;20039;-75
2022/08/26 11:18:10;;;;;;;4.43;3.30;;;28.40;73.30;;;;;;5073727;28;20048;-75
2022/08/26 11:20:45;;;;;;;3.80;3.05;;;28.40;74.40;;;;;;5079989;28;20090;-74
2022/08/26 11:23:11;;;;;;;3.38;2.70;;;28.50;71.20;;;;;;5080034;28;20461;-74
2022/08/26 11:26:00;;;;;;;5.97;2.95;;;28.60;73.30;;;;;;5084522;28;20099;-75
2022/08/26 11:28:34;;;;;;;3.90;3.15;;;28.70;69.70;;;;;;5074866;28;20538;-73
2022/08/26 11:31:01;;;;;;;6.20;3.00;;;28.60;69.00;;;;;;5081936;28;20496;-74
2022/08/26 11:33:47;;;;;;;4.75;2.78;;;28.60;70.80;;;;;;5073597;28;20020;-73
2022/08/26 11:36:44;;;;;;;5.05;3.00;;;28.70;71.50;;;;;;5083464;28;20017;-74
2022/08/26 11:39:29;;;;;;;6.13;3.15;;;28.70;69.70;;;;;;5073106;28;20031;-72
2022/08/26 11:42:14;;;;;;;3.17;2.80;;;28.70;69.50;;;;;;5073194;28;20091;-73
2022/08/26 11:44:42;;;;;;;3.83;2.85;;;28.70;68.70;;;;;;5073151;28;20056;-74
2022/08/26 11:47:11;;;;;;;3.50;2.50;;;28.80;68.80;;;;;;5073061;28;20032;-75
2022/08/26 11:49:37;;;;;;;7.22;3.22;;;28.80;68.20;;;;;;5071761;28;20503;-73
2022/08/26 11:52:18;;;;;;;3.67;2.80;;;28.90;68.20;;;;;;5073107;28;20056;-74
2022/08/26 11:55:13;;;;;;;6.30;2.60;;;28.90;67.50;;;;;;5073169;28;20425;-72
2022/08/26 11:57:45;;;;;;;3.83;2.92;;;29.00;67.50;;;;;;5073206;28;20027;-74
2022/08/26 12:00:27;;;;;;;3.05;2.70;;;29.10;68.00;;;;;;5076690;28;20386;-75
2022/08/26 12:02:54;;;;;;;5.07;2.42;;;29.10;67.00;;;;;;5076831;28;20150;-74
2022/08/26 12:05:26;;;;;;;3.95;2.72;;;29.10;66.90;;;;;;5079969;28;20041;-72
2022/08/26 12:07:53;;;;;;;5.25;2.70;;;29.00;65.40;;;;;;5074682;28;20033;-73
2022/08/26 12:10:32;;;;;;;4.70;2.75;;;29.00;67.40;;;;;;5075556;28;20024;-72
2022/08/26 12:13:00;;;;;;;3.40;3.10;;;29.00;67.00;;;;;;5076017;28;20024;-73
2022/08/26 12:15:28;;;;;;;3.53;2.75;;;29.00;64.80;;;;;;5075961;28;20549;-72
2022/08/26 12:17:53;;;;;;;5.50;2.70;;;29.00;67.50;;;;;;5077679;28;20024;-70
2022/08/26 12:20:52;;;;;;;4.63;2.78;;;29.00;68.70;;;;;;5096569;28;20508;-74
2022/08/26 12:23:40;;;;;;;5.38;2.30;;;29.10;67.30;;;;;;5096673;28;20511;-73
2022/08/26 12:26:19;;;;;;;3.97;2.90;;;29.10;65.90;;;;;;5095921;28;20016;-73
2022/08/26 12:28:53;;;;;;;4.67;3.17;;;29.00;65.00;;;;;;5096644;28;20535;-75
2022/08/26 12:31:23;;;;;;;3.08;2.75;;;29.00;66.30;;;;;;5096371;28;20055;-75
2022/08/26 12:33:50;;;;;;;4.20;2.60;;;28.90;65.30;;;;;;5093912;28;20107;-70
2022/08/26 12:36:23;;;;;;;4.97;2.95;;;28.90;63.10;;;;;;5092388;28;20024;-72
2022/08/26 12:38:49;;;;;;;2.97;2.40;;;29.20;63.80;;;;;;5076416;28;20124;-73
2022/08/26 12:41:33;;;;;;;;;;;29.40;64.30;;;;;;5075622;28;20445;-72
2022/08/26 12:43:59;;;;;;;3.80;2.50;;;29.50;61.80;;;;;;5077063;28;20044;-73
2022/08/26 12:46:27;;;;;;;3.00;2.50;;;29.60;62.20;;;;;;5094914;28;20088;-71
2022/08/26 12:48:53;;;;;;;3.80;2.30;;;29.70;61.40;;;;;;5100032;28;20019;-73
2022/08/26 12:51:28;;;;;;;3.38;2.63;;;29.60;61.50;;;;;;5095735;28;20516;-72
2022/08/26 12:53:54;;;;;;;3.10;2.50;;;29.50;61.00;;;;;;5096069;28;20024;-72
2022/08/26 12:56:26;;;;;;;;;;;29.50;62.90;;;;;;5097194;28;19912;-73
2022/08/26 12:59:02;;;;;;;;;;;29.60;62.50;;;;;;5096532;28;19904;-70
2022/08/26 13:01:36;;;;;;;;;;;29.70;59.20;;;;;;5096294;28;20006;-71
2022/08/26 13:04:02;;;;;;;;;;;29.80;58.90;;;;;;5096188;28;19904;-71
2022/08/26 13:06:28;;;;;;;;;;;29.90;60.70;;;;;;5096493;28;19926;-72
2022/08/26 13:09:03;;;;;;;;;;;29.90;59.00;;;;;;5095507;28;20433;-70
2022/08/26 13:11:34;;;;;;;;;;;29.80;59.80;;;;;;5096016;28;19931;-69